sensor_id;sensor_type;location;lat;lon;timestamp;temperature;humidity
480;DHT22;226;48.606;9.096;2022-12-18T00:00:04;-11.40;22.30
480;DHT22;226;48.606;9.096;2022-12-18T00:02:34;-11.30;22.50
480;DHT22;226;48.606;9.096;2022-12-18T00:05:03;-11.20;22.70
480;DHT22;226;48.606;9.096;2022-12-18T00:07:31;-11.20;22.50
480;DHT22;226;48.606;9.096;2022-12-18T00:09:59;-11.10;22.30
480;DHT22;226;48.606;9.096;2022-12-18T00:12:27;-11.10;21.50
480;DHT22;226;48.606;9.096;2022-12-18T00:14:56;-11.20;19.80
480;DHT22;226;48.606;9.096;2022-12-18T00:17:24;-11.30;19.70
480;DHT22;226;48.606;9.096;2022-12-18T00:19:53;-11.50;20.90
480;DHT22;226;48.606;9.096;2022-12-18T00:22:21;-11.40;21.10
480;DHT22;226;48.606;9.096;2022-12-18T00:24:50;-11.40;21.70
480;DHT22;226;48.606;9.096;2022-12-18T00:27:18;-11.40;22.00
480;DHT22;226;48.606;9.096;2022-12-18T00:29:46;-11.40;22.00
480;DHT22;226;48.606;9.096;2022-12-18T00:32:15;-11.30;21.20
480;DHT22;226;48.606;9.096;2022-12-18T00:34:43;-11.30;21.10
480;DHT22;226;48.606;9.096;2022-12-18T00:37:13;-11.20;21.20
480;DHT22;226;48.606;9.096;2022-12-18T00:39:48;-11.30;20.30
480;DHT22;226;48.606;9.096;2022-12-18T00:42:16;-11.50;20.60
480;DHT22;226;48.606;9.096;2022-12-18T00:45:02;-11.70;19.80
480;DHT22;226;48.606;9.096;2022-12-18T00:47:38;-11.80;20.40
480;DHT22;226;48.606;9.096;2022-12-18T00:50:07;-11.80;21.00
480;DHT22;226;48.606;9.096;2022-12-18T00:52:44;-11.70;21.20
480;DHT22;226;48.606;9.096;2022-12-18T00:55:12;-11.70;21.40
480;DHT22;226;48.606;9.096;2022-12-18T00:57:41;-11.70;21.30
480;DHT22;226;48.606;9.096;2022-12-18T01:00:11;-11.40;22.00
480;DHT22;226;48.606;9.096;2022-12-18T01:02:40;-11.40;20.70
480;DHT22;226;48.606;9.096;2022-12-18T01:05:10;-11.40;19.90
480;DHT22;226;48.606;9.096;2022-12-18T01:07:39;-11.40;20.30
480;DHT22;226;48.606;9.096;2022-12-18T01:10:10;-11.30;19.70
480;DHT22;226;48.606;9.096;2022-12-18T01:12:39;-11.50;19.20
480;DHT22;226;48.606;9.096;2022-12-18T01:15:09;-11.60;19.20
480;DHT22;226;48.606;9.096;2022-12-18T01:17:37;-11.80;19.40
480;DHT22;226;48.606;9.096;2022-12-18T01:20:06;-11.80;20.70
480;DHT22;226;48.606;9.096;2022-12-18T01:22:35;-11.60;21.20
480;DHT22;226;48.606;9.096;2022-12-18T01:25:05;-11.60;20.30
480;DHT22;226;48.606;9.096;2022-12-18T01:27:34;-11.60;20.00
480;DHT22;226;48.606;9.096;2022-12-18T01:30:03;-11.60;20.00
480;DHT22;226;48.606;9.096;2022-12-18T01:32:31;-11.60;20.20
480;DHT22;226;48.606;9.096;2022-12-18T01:35:00;-11.50;20.30
480;DHT22;226;48.606;9.096;2022-12-18T01:37:28;-11.60;19.90
480;DHT22;226;48.606;9.096;2022-12-18T01:39:56;-11.50;20.60
480;DHT22;226;48.606;9.096;2022-12-18T01:42:26;-11.40;20.60
480;DHT22;226;48.606;9.096;2022-12-18T01:44:57;-11.50;19.00
480;DHT22;226;48.606;9.096;2022-12-18T01:47:29;-11.70;19.00
480;DHT22;226;48.606;9.096;2022-12-18T01:50:00;-11.80;19.40
480;DHT22;226;48.606;9.096;2022-12-18T01:52:31;-11.80;20.00
480;DHT22;226;48.606;9.096;2022-12-18T01:55:00;-11.80;21.10
480;DHT22;226;48.606;9.096;2022-12-18T01:57:31;-11.70;20.40
480;DHT22;226;48.606;9.096;2022-12-18T02:00:03;-11.70;20.80
480;DHT22;226;48.606;9.096;2022-12-18T02:02:32;-11.60;20.50
480;DHT22;226;48.606;9.096;2022-12-18T02:05:02;-11.60;20.10
480;DHT22;226;48.606;9.096;2022-12-18T02:07:37;-11.60;20.20
480;DHT22;226;48.606;9.096;2022-12-18T02:10:14;-11.50;20.70
480;DHT22;226;48.606;9.096;2022-12-18T02:12:49;-11.40;20.90
480;DHT22;226;48.606;9.096;2022-12-18T02:15:24;-11.30;19.90
480;DHT22;226;48.606;9.096;2022-12-18T02:17:56;-11.30;20.00
480;DHT22;226;48.606;9.096;2022-12-18T02:20:32;-11.20;20.10
480;DHT22;226;48.606;9.096;2022-12-18T02:23:08;-11.30;20.10
480;DHT22;226;48.606;9.096;2022-12-18T02:26:00;-11.20;19.90
480;DHT22;226;48.606;9.096;2022-12-18T02:28:32;-11.20;19.50
480;DHT22;226;48.606;9.096;2022-12-18T02:31:03;-11.30;19.70
480;DHT22;226;48.606;9.096;2022-12-18T02:33:33;-11.30;19.90
480;DHT22;226;48.606;9.096;2022-12-18T02:36:04;-11.30;20.20
480;DHT22;226;48.606;9.096;2022-12-18T02:38:34;-11.20;20.00
480;DHT22;226;48.606;9.096;2022-12-18T02:41:04;-11.20;20.50
480;DHT22;226;48.606;9.096;2022-12-18T02:43:33;-11.10;20.20
480;DHT22;226;48.606;9.096;2022-12-18T02:46:27;-11.10;19.80
480;DHT22;226;48.606;9.096;2022-12-18T02:49:03;-11.20;18.90
480;DHT22;226;48.606;9.096;2022-12-18T02:51:41;-11.30;19.50
480;DHT22;226;48.606;9.096;2022-12-18T02:54:17;-11.30;19.70
480;DHT22;226;48.606;9.096;2022-12-18T02:56:53;-11.30;20.10
480;DHT22;226;48.606;9.096;2022-12-18T02:59:28;-11.30;20.50
480;DHT22;226;48.606;9.096;2022-12-18T03:02:04;-11.30;20.70
480;DHT22;226;48.606;9.096;2022-12-18T03:04:39;-11.10;20.60
480;DHT22;226;48.606;9.096;2022-12-18T03:07:16;-11.10;19.80
480;DHT22;226;48.606;9.096;2022-12-18T03:09:48;-11.00;19.90
480;DHT22;226;48.606;9.096;2022-12-18T03:12:21;-11.00;19.90
480;DHT22;226;48.606;9.096;2022-12-18T03:14:56;-11.00;19.90
480;DHT22;226;48.606;9.096;2022-12-18T03:17:28;-11.00;19.90
480;DHT22;226;48.606;9.096;2022-12-18T03:20:02;-11.00;19.90
480;DHT22;226;48.606;9.096;2022-12-18T03:22:32;-11.00;19.90
480;DHT22;226;48.606;9.096;2022-12-18T03:25:05;-11.00;19.90
480;DHT22;226;48.606;9.096;2022-12-18T03:27:38;-11.00;19.90
480;DHT22;226;48.606;9.096;2022-12-18T03:30:09;-11.10;20.30
480;DHT22;226;48.606;9.096;2022-12-18T03:32:42;-11.10;21.10
480;DHT22;226;48.606;9.096;2022-12-18T03:35:12;-10.90;20.70
480;DHT22;226;48.606;9.096;2022-12-18T03:37:45;-10.90;20.00
480;DHT22;226;48.606;9.096;2022-12-18T03:40:13;-10.90;20.00
480;DHT22;226;48.606;9.096;2022-12-18T03:42:46;-10.90;20.00
480;DHT22;226;48.606;9.096;2022-12-18T03:45:22;-11.00;18.70
480;DHT22;226;48.606;9.096;2022-12-18T03:48:00;-11.00;19.80
480;DHT22;226;48.606;9.096;2022-12-18T03:50:37;-11.10;19.30
480;DHT22;226;48.606;9.096;2022-12-18T03:53:17;-11.10;19.70
480;DHT22;226;48.606;9.096;2022-12-18T03:55:48;-11.10;19.90
480;DHT22;226;48.606;9.096;2022-12-18T03:58:20;-11.00;19.90
480;DHT22;226;48.606;9.096;2022-12-18T04:00:52;-11.00;19.70
480;DHT22;226;48.606;9.096;2022-12-18T04:03:23;-11.00;19.10
480;DHT22;226;48.606;9.096;2022-12-18T04:05:54;-11.10;19.80
480;DHT22;226;48.606;9.096;2022-12-18T04:08:24;-11.20;19.80
480;DHT22;226;48.606;9.096;2022-12-18T04:10:52;-11.20;19.70
480;DHT22;226;48.606;9.096;2022-12-18T04:13:28;-11.30;19.70
480;DHT22;226;48.606;9.096;2022-12-18T04:15:57;-11.20;19.00
480;DHT22;226;48.606;9.096;2022-12-18T04:18:25;-11.30;18.40
480;DHT22;226;48.606;9.096;2022-12-18T04:20:53;-11.40;19.10
480;DHT22;226;48.606;9.096;2022-12-18T04:23:21;-11.40;19.00
480;DHT22;226;48.606;9.096;2022-12-18T04:25:50;-11.50;19.40
480;DHT22;226;48.606;9.096;2022-12-18T04:28:18;-11.50;19.60
480;DHT22;226;48.606;9.096;2022-12-18T04:30:51;-11.50;19.60
480;DHT22;226;48.606;9.096;2022-12-18T04:33:19;-11.40;20.20
480;DHT22;226;48.606;9.096;2022-12-18T04:35:48;-11.40;19.70
480;DHT22;226;48.606;9.096;2022-12-18T04:38:16;-11.50;19.60
480;DHT22;226;48.606;9.096;2022-12-18T04:40:44;-11.50;20.50
480;DHT22;226;48.606;9.096;2022-12-18T04:43:12;-11.50;20.00
480;DHT22;226;48.606;9.096;2022-12-18T04:45:40;-11.40;19.70
480;DHT22;226;48.606;9.096;2022-12-18T04:48:10;-11.40;20.60
480;DHT22;226;48.606;9.096;2022-12-18T04:50:38;-11.40;19.80
480;DHT22;226;48.606;9.096;2022-12-18T04:53:06;-11.30;20.20
480;DHT22;226;48.606;9.096;2022-12-18T04:55:35;-11.30;20.60
480;DHT22;226;48.606;9.096;2022-12-18T04:58:04;-11.20;20.30
480;DHT22;226;48.606;9.096;2022-12-18T05:00:32;-11.20;19.20
480;DHT22;226;48.606;9.096;2022-12-18T05:03:01;-11.20;18.60
480;DHT22;226;48.606;9.096;2022-12-18T05:05:30;-11.40;18.50
480;DHT22;226;48.606;9.096;2022-12-18T05:07:59;-11.40;18.50
480;DHT22;226;48.606;9.096;2022-12-18T05:10:28;-11.60;18.40
480;DHT22;226;48.606;9.096;2022-12-18T05:13:03;-11.70;19.40
480;DHT22;226;48.606;9.096;2022-12-18T05:15:33;-11.70;20.30
480;DHT22;226;48.606;9.096;2022-12-18T05:18:02;-11.80;20.60
480;DHT22;226;48.606;9.096;2022-12-18T05:20:31;-11.80;20.80
480;DHT22;226;48.606;9.096;2022-12-18T05:22:59;-11.70;20.80
480;DHT22;226;48.606;9.096;2022-12-18T05:25:28;-11.70;20.30
480;DHT22;226;48.606;9.096;2022-12-18T05:27:56;-11.70;19.40
480;DHT22;226;48.606;9.096;2022-12-18T05:30:25;-11.70;19.40
480;DHT22;226;48.606;9.096;2022-12-18T05:32:54;-11.60;19.50
480;DHT22;226;48.606;9.096;2022-12-18T05:35:22;-11.70;19.40
480;DHT22;226;48.606;9.096;2022-12-18T05:37:52;-11.60;19.80
480;DHT22;226;48.606;9.096;2022-12-18T05:40:20;-11.60;19.80
480;DHT22;226;48.606;9.096;2022-12-18T05:42:48;-11.60;19.50
480;DHT22;226;48.606;9.096;2022-12-18T05:45:16;-11.70;19.60
480;DHT22;226;48.606;9.096;2022-12-18T05:47:44;-11.60;19.30
480;DHT22;226;48.606;9.096;2022-12-18T05:50:13;-11.60;18.70
480;DHT22;226;48.606;9.096;2022-12-18T05:52:41;-11.60;18.80
480;DHT22;226;48.606;9.096;2022-12-18T05:55:10;-11.70;19.00
480;DHT22;226;48.606;9.096;2022-12-18T05:57:38;-11.70;18.80
480;DHT22;226;48.606;9.096;2022-12-18T06:00:08;-11.70;19.40
480;DHT22;226;48.606;9.096;2022-12-18T06:02:36;-11.80;19.40
480;DHT22;226;48.606;9.096;2022-12-18T06:05:05;-11.90;19.30
480;DHT22;226;48.606;9.096;2022-12-18T06:07:34;-11.90;20.60
480;DHT22;226;48.606;9.096;2022-12-18T06:10:02;-11.90;19.90
480;DHT22;226;48.606;9.096;2022-12-18T06:12:32;-11.90;19.50
480;DHT22;226;48.606;9.096;2022-12-18T06:15:00;-12.00;19.60
480;DHT22;226;48.606;9.096;2022-12-18T06:17:29;-12.00;20.60
480;DHT22;226;48.606;9.096;2022-12-18T06:19:57;-12.00;19.60
480;DHT22;226;48.606;9.096;2022-12-18T06:22:25;-11.90;19.80
480;DHT22;226;48.606;9.096;2022-12-18T06:24:54;-11.90;19.40
480;DHT22;226;48.606;9.096;2022-12-18T06:27:22;-11.90;19.30
480;DHT22;226;48.606;9.096;2022-12-18T06:29:52;-11.90;19.30
480;DHT22;226;48.606;9.096;2022-12-18T06:32:20;-11.90;19.30
480;DHT22;226;48.606;9.096;2022-12-18T06:34:48;-11.90;19.30
480;DHT22;226;48.606;9.096;2022-12-18T06:37:16;-12.00;18.60
480;DHT22;226;48.606;9.096;2022-12-18T06:39:44;-12.20;19.10
480;DHT22;226;48.606;9.096;2022-12-18T06:42:13;-12.20;19.10
480;DHT22;226;48.606;9.096;2022-12-18T06:44:41;-12.30;19.10
480;DHT22;226;48.606;9.096;2022-12-18T06:47:11;-12.30;19.40
480;DHT22;226;48.606;9.096;2022-12-18T06:49:39;-12.30;19.60
480;DHT22;226;48.606;9.096;2022-12-18T06:52:07;-12.30;19.80
480;DHT22;226;48.606;9.096;2022-12-18T06:54:35;-12.20;19.90
480;DHT22;226;48.606;9.096;2022-12-18T06:57:03;-12.20;19.80
480;DHT22;226;48.606;9.096;2022-12-18T06:59:31;-12.20;19.90
480;DHT22;226;48.606;9.096;2022-12-18T07:02:00;-12.00;19.80
480;DHT22;226;48.606;9.096;2022-12-18T07:04:30;-12.10;19.30
480;DHT22;226;48.606;9.096;2022-12-18T07:06:58;-12.10;19.50
480;DHT22;226;48.606;9.096;2022-12-18T07:09:26;-12.10;19.10
480;DHT22;226;48.606;9.096;2022-12-18T07:11:55;-12.00;18.80
480;DHT22;226;48.606;9.096;2022-12-18T07:14:23;-12.00;18.30
480;DHT22;226;48.606;9.096;2022-12-18T07:16:51;-12.00;18.90
480;DHT22;226;48.606;9.096;2022-12-18T07:19:20;-10.20;19.60
480;DHT22;226;48.606;9.096;2022-12-18T07:21:52;-12.00;18.50
480;DHT22;226;48.606;9.096;2022-12-18T07:24:20;-12.10;18.70
480;DHT22;226;48.606;9.096;2022-12-18T07:26:48;-12.10;18.90
480;DHT22;226;48.606;9.096;2022-12-18T07:29:17;-12.10;19.10
480;DHT22;226;48.606;9.096;2022-12-18T07:31:45;-12.00;18.80
480;DHT22;226;48.606;9.096;2022-12-18T07:34:14;-12.00;19.30
480;DHT22;226;48.606;9.096;2022-12-18T07:36:42;-11.90;19.30
480;DHT22;226;48.606;9.096;2022-12-18T07:39:12;-11.80;19.20
480;DHT22;226;48.606;9.096;2022-12-18T07:41:40;-11.80;18.40
480;DHT22;226;48.606;9.096;2022-12-18T07:44:13;-11.80;18.60
480;DHT22;226;48.606;9.096;2022-12-18T07:46:41;-11.80;18.50
480;DHT22;226;48.606;9.096;2022-12-18T07:49:10;-11.80;18.90
480;DHT22;226;48.606;9.096;2022-12-18T07:51:38;-11.60;18.80
480;DHT22;226;48.606;9.096;2022-12-18T07:54:06;-11.60;17.60
480;DHT22;226;48.606;9.096;2022-12-18T07:56:35;-11.80;17.90
480;DHT22;226;48.606;9.096;2022-12-18T07:59:03;-11.80;18.40
480;DHT22;226;48.606;9.096;2022-12-18T08:01:33;-11.80;18.50
480;DHT22;226;48.606;9.096;2022-12-18T08:04:01;-11.80;19.00
480;DHT22;226;48.606;9.096;2022-12-18T08:06:29;-11.70;19.30
480;DHT22;226;48.606;9.096;2022-12-18T08:08:58;-11.60;18.90
480;DHT22;226;48.606;9.096;2022-12-18T08:11:28;-11.50;18.90
480;DHT22;226;48.606;9.096;2022-12-18T08:13:58;-11.50;18.60
480;DHT22;226;48.606;9.096;2022-12-18T08:16:26;-11.50;18.80
480;DHT22;226;48.606;9.096;2022-12-18T08:18:55;-11.50;18.30
480;DHT22;226;48.606;9.096;2022-12-18T08:21:25;-11.50;18.90
480;DHT22;226;48.606;9.096;2022-12-18T08:23:54;-11.70;19.40
480;DHT22;226;48.606;9.096;2022-12-18T08:26:24;-11.80;19.80
480;DHT22;226;48.606;9.096;2022-12-18T08:28:54;-11.60;21.50
480;DHT22;226;48.606;9.096;2022-12-18T08:31:25;-11.40;21.10
480;DHT22;226;48.606;9.096;2022-12-18T08:33:54;-11.30;20.30
480;DHT22;226;48.606;9.096;2022-12-18T08:36:23;-11.30;19.70
480;DHT22;226;48.606;9.096;2022-12-18T08:38:53;-11.30;20.70
480;DHT22;226;48.606;9.096;2022-12-18T08:41:21;-11.00;21.00
480;DHT22;226;48.606;9.096;2022-12-18T08:43:49;-10.80;20.40
480;DHT22;226;48.606;9.096;2022-12-18T08:46:38;-10.80;18.70
480;DHT22;226;48.606;9.096;2022-12-18T08:49:07;-10.90;19.90
480;DHT22;226;48.606;9.096;2022-12-18T08:51:36;-10.70;20.10
480;DHT22;226;48.606;9.096;2022-12-18T08:54:05;-10.60;20.20
480;DHT22;226;48.606;9.096;2022-12-18T08:56:34;-10.50;20.50
480;DHT22;226;48.606;9.096;2022-12-18T08:59:02;-10.40;20.30
480;DHT22;226;48.606;9.096;2022-12-18T09:01:31;-10.40;20.30
480;DHT22;226;48.606;9.096;2022-12-18T09:04:02;-10.40;20.30
480;DHT22;226;48.606;9.096;2022-12-18T09:06:32;-10.20;22.00
480;DHT22;226;48.606;9.096;2022-12-18T09:09:01;-10.00;21.40
480;DHT22;226;48.606;9.096;2022-12-18T09:11:30;-9.90;21.20
480;DHT22;226;48.606;9.096;2022-12-18T09:13:59;-9.90;21.20
480;DHT22;226;48.606;9.096;2022-12-18T09:16:29;-9.70;20.70
480;DHT22;226;48.606;9.096;2022-12-18T09:18:59;-9.60;21.30
480;DHT22;226;48.606;9.096;2022-12-18T09:21:31;-9.60;20.80
480;DHT22;226;48.606;9.096;2022-12-18T09:24:04;-9.50;20.80
480;DHT22;226;48.606;9.096;2022-12-18T09:26:34;-9.50;21.20
480;DHT22;226;48.606;9.096;2022-12-18T09:29:03;-9.20;21.40
480;DHT22;226;48.606;9.096;2022-12-18T09:31:31;-9.20;21.50
480;DHT22;226;48.606;9.096;2022-12-18T09:33:59;-9.10;21.20
480;DHT22;226;48.606;9.096;2022-12-18T09:36:29;-8.90;21.50
480;DHT22;226;48.606;9.096;2022-12-18T09:38:57;-8.80;21.70
480;DHT22;226;48.606;9.096;2022-12-18T09:41:42;-8.70;21.90
480;DHT22;226;48.606;9.096;2022-12-18T09:44:18;-8.50;22.10
480;DHT22;226;48.606;9.096;2022-12-18T09:46:53;-8.40;22.00
480;DHT22;226;48.606;9.096;2022-12-18T09:49:24;-8.40;21.90
480;DHT22;226;48.606;9.096;2022-12-18T09:51:59;-8.50;22.10
480;DHT22;226;48.606;9.096;2022-12-18T09:54:33;-8.40;22.60
480;DHT22;226;48.606;9.096;2022-12-18T09:57:03;-8.20;23.40
480;DHT22;226;48.606;9.096;2022-12-18T09:59:35;-8.10;23.80
480;DHT22;226;48.606;9.096;2022-12-18T10:02:17;-7.80;24.40
480;DHT22;226;48.606;9.096;2022-12-18T10:04:51;-7.70;23.80
480;DHT22;226;48.606;9.096;2022-12-18T10:07:28;-7.60;23.60
480;DHT22;226;48.606;9.096;2022-12-18T10:10:06;-7.70;23.70
480;DHT22;226;48.606;9.096;2022-12-18T10:12:41;-7.50;24.20
480;DHT22;226;48.606;9.096;2022-12-18T10:15:14;-7.40;24.00
480;DHT22;226;48.606;9.096;2022-12-18T10:17:48;-7.30;24.10
480;DHT22;226;48.606;9.096;2022-12-18T10:20:31;-7.10;25.50
480;DHT22;226;48.606;9.096;2022-12-18T10:23:13;-7.00;25.90
480;DHT22;226;48.606;9.096;2022-12-18T10:25:50;-6.90;26.40
480;DHT22;226;48.606;9.096;2022-12-18T10:28:20;-6.90;26.20
480;DHT22;226;48.606;9.096;2022-12-18T10:30:49;-6.80;26.20
480;DHT22;226;48.606;9.096;2022-12-18T10:33:20;-6.80;26.60
480;DHT22;226;48.606;9.096;2022-12-18T10:35:50;-6.70;26.70
480;DHT22;226;48.606;9.096;2022-12-18T10:38:25;-6.60;27.10
480;DHT22;226;48.606;9.096;2022-12-18T10:40:55;-6.40;27.30
480;DHT22;226;48.606;9.096;2022-12-18T10:43:26;-6.20;27.50
480;DHT22;226;48.606;9.096;2022-12-18T10:46:12;-6.00;28.30
480;DHT22;226;48.606;9.096;2022-12-18T10:48:51;-5.80;28.80
480;DHT22;226;48.606;9.096;2022-12-18T10:51:22;-5.60;29.30
480;DHT22;226;48.606;9.096;2022-12-18T10:54:00;-5.40;29.50
480;DHT22;226;48.606;9.096;2022-12-18T10:56:31;-5.20;29.90
480;DHT22;226;48.606;9.096;2022-12-18T10:59:02;-4.90;33.50
480;DHT22;226;48.606;9.096;2022-12-18T11:01:49;-4.60;36.20
480;DHT22;226;48.606;9.096;2022-12-18T11:04:20;-4.40;36.50
480;DHT22;226;48.606;9.096;2022-12-18T11:06:57;-4.30;36.10
480;DHT22;226;48.606;9.096;2022-12-18T11:09:28;-4.20;35.40
480;DHT22;226;48.606;9.096;2022-12-18T11:11:58;-4.10;34.70
480;DHT22;226;48.606;9.096;2022-12-18T11:14:28;-4.00;33.40
480;DHT22;226;48.606;9.096;2022-12-18T11:16:58;-3.90;33.10
480;DHT22;226;48.606;9.096;2022-12-18T11:19:53;-3.70;32.60
480;DHT22;226;48.606;9.096;2022-12-18T11:22:24;-3.50;32.20
480;DHT22;226;48.606;9.096;2022-12-18T11:24:58;-3.50;32.20
480;DHT22;226;48.606;9.096;2022-12-18T11:27:48;-3.30;31.60
480;DHT22;226;48.606;9.096;2022-12-18T11:30:22;-3.30;31.30
480;DHT22;226;48.606;9.096;2022-12-18T11:32:53;-3.20;31.90
480;DHT22;226;48.606;9.096;2022-12-18T11:35:30;-3.10;30.90
480;DHT22;226;48.606;9.096;2022-12-18T11:38:06;-2.90;30.60
480;DHT22;226;48.606;9.096;2022-12-18T11:40:42;-2.90;30.20
480;DHT22;226;48.606;9.096;2022-12-18T11:43:15;-2.80;29.90
480;DHT22;226;48.606;9.096;2022-12-18T11:45:50;-2.80;29.80
480;DHT22;226;48.606;9.096;2022-12-18T11:48:23;-2.70;29.70
480;DHT22;226;48.606;9.096;2022-12-18T11:50:54;-2.70;29.80
480;DHT22;226;48.606;9.096;2022-12-18T11:53:24;-2.60;29.60
480;DHT22;226;48.606;9.096;2022-12-18T11:56:06;-2.50;29.40
480;DHT22;226;48.606;9.096;2022-12-18T11:58:46;-2.50;29.10
480;DHT22;226;48.606;9.096;2022-12-18T12:01:30;-2.40;28.70
480;DHT22;226;48.606;9.096;2022-12-18T12:04:41;-2.30;28.50
480;DHT22;226;48.606;9.096;2022-12-18T12:07:21;-2.20;27.80
480;DHT22;226;48.606;9.096;2022-12-18T12:09:58;-2.20;27.60
480;DHT22;226;48.606;9.096;2022-12-18T12:12:41;-2.10;27.80
480;DHT22;226;48.606;9.096;2022-12-18T12:15:28;-2.00;28.40
480;DHT22;226;48.606;9.096;2022-12-18T12:18:08;-2.00;28.00
480;DHT22;226;48.606;9.096;2022-12-18T12:20:46;-1.80;27.30
480;DHT22;226;48.606;9.096;2022-12-18T12:23:26;-1.70;26.90
480;DHT22;226;48.606;9.096;2022-12-18T12:26:04;-1.60;27.10
480;DHT22;226;48.606;9.096;2022-12-18T12:28:53;-1.50;26.40
480;DHT22;226;48.606;9.096;2022-12-18T12:34:25;-1.30;25.70
480;DHT22;226;48.606;9.096;2022-12-18T12:37:10;-1.30;25.00
480;DHT22;226;48.606;9.096;2022-12-18T12:39:43;-0.90;26.00
480;DHT22;226;48.606;9.096;2022-12-18T12:42:17;-1.30;26.10
480;DHT22;226;48.606;9.096;2022-12-18T12:45:09;-1.20;25.50
480;DHT22;226;48.606;9.096;2022-12-18T12:47:42;-1.10;25.20
480;DHT22;226;48.606;9.096;2022-12-18T12:50:15;-1.10;24.80
480;DHT22;226;48.606;9.096;2022-12-18T12:52:47;-1.10;25.40
480;DHT22;226;48.606;9.096;2022-12-18T12:55:18;-1.00;25.00
480;DHT22;226;48.606;9.096;2022-12-18T12:57:57;-0.90;24.90
480;DHT22;226;48.606;9.096;2022-12-18T13:00:34;-0.80;24.90
480;DHT22;226;48.606;9.096;2022-12-18T13:03:15;-0.80;24.70
480;DHT22;226;48.606;9.096;2022-12-18T13:05:49;-0.70;24.50
480;DHT22;226;48.606;9.096;2022-12-18T13:08:24;-0.70;24.50
480;DHT22;226;48.606;9.096;2022-12-18T13:10:53;-0.60;24.30
480;DHT22;226;48.606;9.096;2022-12-18T13:13:49;-0.60;24.00
480;DHT22;226;48.606;9.096;2022-12-18T13:16:21;-0.60;24.40
480;DHT22;226;48.606;9.096;2022-12-18T13:18:50;-0.60;23.90
480;DHT22;226;48.606;9.096;2022-12-18T13:21:23;-0.50;23.90
480;DHT22;226;48.606;9.096;2022-12-18T13:23:54;-0.40;23.20
480;DHT22;226;48.606;9.096;2022-12-18T13:26:31;-0.40;23.10
480;DHT22;226;48.606;9.096;2022-12-18T13:29:02;-0.40;23.30
480;DHT22;226;48.606;9.096;2022-12-18T13:34:37;-0.30;22.70
480;DHT22;226;48.606;9.096;2022-12-18T13:37:38;-0.20;22.50
480;DHT22;226;48.606;9.096;2022-12-18T13:43:28;-0.20;22.40
480;DHT22;226;48.606;9.096;2022-12-18T13:46:21;-0.20;22.60
480;DHT22;226;48.606;9.096;2022-12-18T13:48:53;-0.30;22.70
480;DHT22;226;48.606;9.096;2022-12-18T13:51:25;-0.30;22.90
480;DHT22;226;48.606;9.096;2022-12-18T13:53:55;-0.20;22.80
480;DHT22;226;48.606;9.096;2022-12-18T13:56:26;-0.20;22.70
480;DHT22;226;48.606;9.096;2022-12-18T13:59:14;-0.30;23.00
480;DHT22;226;48.606;9.096;2022-12-18T14:01:48;-0.30;22.70
480;DHT22;226;48.606;9.096;2022-12-18T14:04:20;-0.40;22.20
480;DHT22;226;48.606;9.096;2022-12-18T14:06:55;-0.50;22.50
480;DHT22;226;48.606;9.096;2022-12-18T14:09:26;-0.60;23.10
480;DHT22;226;48.606;9.096;2022-12-18T14:11:56;-0.80;23.80
480;DHT22;226;48.606;9.096;2022-12-18T14:14:42;-0.80;24.10
480;DHT22;226;48.606;9.096;2022-12-18T14:17:12;-0.80;24.40
480;DHT22;226;48.606;9.096;2022-12-18T14:19:43;-0.80;24.40
480;DHT22;226;48.606;9.096;2022-12-18T14:22:18;-0.90;24.40
480;DHT22;226;48.606;9.096;2022-12-18T14:24:47;-1.00;24.70
480;DHT22;226;48.606;9.096;2022-12-18T14:27:36;-1.10;25.40
480;DHT22;226;48.606;9.096;2022-12-18T14:30:24;-1.10;26.00
480;DHT22;226;48.606;9.096;2022-12-18T14:33:03;-1.00;25.90
480;DHT22;226;48.606;9.096;2022-12-18T14:35:32;-1.00;25.80
480;DHT22;226;48.606;9.096;2022-12-18T14:38:22;-1.00;25.50
480;DHT22;226;48.606;9.096;2022-12-18T14:40:55;-1.10;25.70
480;DHT22;226;48.606;9.096;2022-12-18T14:43:27;-1.10;26.20
480;DHT22;226;48.606;9.096;2022-12-18T14:45:56;-1.20;26.20
480;DHT22;226;48.606;9.096;2022-12-18T14:48:34;-1.20;26.20
480;DHT22;226;48.606;9.096;2022-12-18T14:51:04;-1.30;26.90
480;DHT22;226;48.606;9.096;2022-12-18T14:53:37;-1.30;27.00
480;DHT22;226;48.606;9.096;2022-12-18T14:56:16;-1.40;27.20
480;DHT22;226;48.606;9.096;2022-12-18T14:58:46;-1.50;27.10
480;DHT22;226;48.606;9.096;2022-12-18T15:01:19;-1.60;27.00
480;DHT22;226;48.606;9.096;2022-12-18T15:03:48;-1.60;27.10
480;DHT22;226;48.606;9.096;2022-12-18T15:06:18;-1.80;27.00
480;DHT22;226;48.606;9.096;2022-12-18T15:08:53;-2.00;27.40
480;DHT22;226;48.606;9.096;2022-12-18T15:11:45;-2.00;27.70
480;DHT22;226;48.606;9.096;2022-12-18T15:14:30;-2.00;27.70
480;DHT22;226;48.606;9.096;2022-12-18T15:16:59;-2.10;27.50
480;DHT22;226;48.606;9.096;2022-12-18T15:19:34;-2.20;28.20
480;DHT22;226;48.606;9.096;2022-12-18T15:22:03;-2.30;28.20
480;DHT22;226;48.606;9.096;2022-12-18T15:24:34;-2.40;28.20
480;DHT22;226;48.606;9.096;2022-12-18T15:27:02;-2.40;28.60
480;DHT22;226;48.606;9.096;2022-12-18T15:29:30;-2.40;28.70
480;DHT22;226;48.606;9.096;2022-12-18T15:32:01;-2.40;29.00
480;DHT22;226;48.606;9.096;2022-12-18T15:34:30;-2.40;28.60
480;DHT22;226;48.606;9.096;2022-12-18T15:36:59;-2.60;28.50
480;DHT22;226;48.606;9.096;2022-12-18T15:39:27;-2.70;29.30
480;DHT22;226;48.606;9.096;2022-12-18T15:41:57;-2.70;29.20
480;DHT22;226;48.606;9.096;2022-12-18T15:44:43;-2.80;29.80
480;DHT22;226;48.606;9.096;2022-12-18T15:47:12;-2.90;29.90
480;DHT22;226;48.606;9.096;2022-12-18T15:49:40;-3.00;30.00
480;DHT22;226;48.606;9.096;2022-12-18T15:52:11;-3.10;30.00
480;DHT22;226;48.606;9.096;2022-12-18T15:54:41;-3.10;31.40
480;DHT22;226;48.606;9.096;2022-12-18T15:57:28;-3.20;33.00
480;DHT22;226;48.606;9.096;2022-12-18T15:59:56;-3.50;33.40
480;DHT22;226;48.606;9.096;2022-12-18T16:02:25;-3.70;34.00
480;DHT22;226;48.606;9.096;2022-12-18T16:04:55;-3.90;34.90
480;DHT22;226;48.606;9.096;2022-12-18T16:07:23;-4.00;36.30
480;DHT22;226;48.606;9.096;2022-12-18T16:09:56;-4.10;36.10
480;DHT22;226;48.606;9.096;2022-12-18T16:12:28;-4.10;36.80
480;DHT22;226;48.606;9.096;2022-12-18T16:14:56;-4.10;36.80
480;DHT22;226;48.606;9.096;2022-12-18T16:17:24;-4.30;34.10
480;DHT22;226;48.606;9.096;2022-12-18T16:19:52;-4.40;34.30
480;DHT22;226;48.606;9.096;2022-12-18T16:22:23;-4.60;34.70
480;DHT22;226;48.606;9.096;2022-12-18T16:24:52;-4.70;36.20
480;DHT22;226;48.606;9.096;2022-12-18T16:27:21;-4.70;36.70
480;DHT22;226;48.606;9.096;2022-12-18T16:29:51;-4.60;37.20
480;DHT22;226;48.606;9.096;2022-12-18T16:32:21;-4.50;37.80
480;DHT22;226;48.606;9.096;2022-12-18T16:34:50;-4.50;37.60
480;DHT22;226;48.606;9.096;2022-12-18T16:37:18;-4.50;38.30
480;DHT22;226;48.606;9.096;2022-12-18T16:39:46;-4.40;38.20
480;DHT22;226;48.606;9.096;2022-12-18T16:42:16;-4.30;37.80
480;DHT22;226;48.606;9.096;2022-12-18T16:44:47;-4.30;37.00
480;DHT22;226;48.606;9.096;2022-12-18T16:47:18;-4.30;37.70
480;DHT22;226;48.606;9.096;2022-12-18T16:49:46;-4.20;37.10
480;DHT22;226;48.606;9.096;2022-12-18T16:52:17;-4.10;37.70
480;DHT22;226;48.606;9.096;2022-12-18T16:54:46;-4.10;36.90
480;DHT22;226;48.606;9.096;2022-12-18T16:57:16;-4.00;36.90
480;DHT22;226;48.606;9.096;2022-12-18T16:59:47;-3.80;36.10
480;DHT22;226;48.606;9.096;2022-12-18T17:02:19;-3.80;35.90
480;DHT22;226;48.606;9.096;2022-12-18T17:04:52;-3.80;34.00